Time;durP1;ratioP1;P1;durP2;ratioP2;P2;SDS_P1;SDS_P2;PMS_P1;PMS_P2;Temp;Humidity;BMP_temperature;BMP_pressure;BME280_temperature;BME280_humidity;BME280_pressure;Samples;Min_cycle;Max_cycle;Signal;HPM_P1;HPM_P2
2023/12/27 00:01:09;;;;;;;19.67;10.73;;;0.10;75.80;;;;;;5067721;28;20052;-83
2023/12/27 00:03:37;;;;;;;22.98;10.65;;;0.10;75.50;;;;;;5063324;28;20045;-83
2023/12/27 00:06:05;;;;;;;20.08;9.70;;;0.20;75.20;;;;;;5068094;28;20152;-83
2023/12/27 00:08:33;;;;;;;14.40;9.05;;;0.20;75.60;;;;;;5069490;28;20056;-83
2023/12/27 00:11:00;;;;;;;14.60;7.93;;;0.30;75.80;;;;;;5066430;28;20056;-82
2023/12/27 00:13:29;;;;;;;14.95;7.78;;;0.30;74.70;;;;;;5057927;28;20570;-83
2023/12/27 00:15:56;;;;;;;14.25;8.27;;;0.30;74.80;;;;;;5049823;28;20048;-82
2023/12/27 00:18:27;;;;;;;19.13;9.20;;;0.30;74.70;;;;;;5083412;28;20056;-83
2023/12/27 00:20:54;;;;;;;13.80;8.43;;;0.30;75.00;;;;;;5045676;28;20049;-82
2023/12/27 00:23:22;;;;;;;19.83;8.68;;;0.30;74.80;;;;;;5077080;28;20425;-82
2023/12/27 00:25:49;;;;;;;12.75;7.60;;;0.40;75.00;;;;;;5074102;28;20139;-82
2023/12/27 00:28:17;;;;;;;13.80;7.00;;;0.50;74.90;;;;;;5039903;28;20044;-82
2023/12/27 00:30:48;;;;;;;15.55;7.93;;;0.40;74.10;;;;;;5059362;28;20041;-82
2023/12/27 00:33:16;;;;;;;14.93;7.53;;;0.30;73.90;;;;;;5049456;28;20489;-83
2023/12/27 00:35:44;;;;;;;14.93;8.40;;;0.40;74.50;;;;;;5080268;28;20554;-83
2023/12/27 00:38:11;;;;;;;11.32;7.40;;;0.40;74.30;;;;;;5050213;28;20044;-83
2023/12/27 00:40:39;;;;;;;10.73;7.57;;;0.40;74.10;;;;;;5058629;28;20056;-82
2023/12/27 00:43:06;;;;;;;13.30;7.85;;;0.40;73.80;;;;;;5052187;28;20044;-83
2023/12/27 00:45:34;;;;;;;10.77;7.85;;;0.50;73.70;;;;;;5051819;28;20411;-83
2023/12/27 00:48:03;;;;;;;13.07;7.65;;;0.40;73.30;;;;;;5057565;28;20057;-82
2023/12/27 00:50:30;;;;;;;13.13;7.43;;;0.40;73.90;;;;;;5067894;28;20116;-81
2023/12/27 00:52:58;;;;;;;16.02;8.50;;;0.40;73.30;;;;;;5068650;28;20371;-81
2023/12/27 00:55:26;;;;;;;23.58;9.90;;;0.40;73.80;;;;;;5068794;28;20051;-82
2023/12/27 00:57:53;;;;;;;17.20;9.23;;;0.40;73.50;;;;;;5047270;28;20048;-82
2023/12/27 01:00:24;;;;;;;22.05;9.43;;;0.40;74.00;;;;;;5065307;28;20047;-82
2023/12/27 01:02:51;;;;;;;16.52;8.90;;;0.40;73.80;;;;;;5065506;28;20045;-82
2023/12/27 01:05:20;;;;;;;18.30;10.15;;;0.40;73.70;;;;;;5067556;28;20208;-82
2023/12/27 01:07:48;;;;;;;19.08;11.02;;;0.40;73.70;;;;;;5068306;28;20040;-82
2023/12/27 01:10:17;;;;;;;18.83;10.20;;;0.30;73.70;;;;;;5065957;28;20041;-83
2023/12/27 01:12:46;;;;;;;24.95;10.27;;;0.30;73.90;;;;;;5065464;28;20044;-83
2023/12/27 01:15:13;;;;;;;19.20;10.48;;;0.30;74.30;;;;;;5030615;28;20044;-84
2023/12/27 01:17:41;;;;;;;18.58;10.98;;;0.30;74.40;;;;;;5047918;28;20523;-85
2023/12/27 01:20:10;;;;;;;19.48;9.55;;;0.30;74.20;;;;;;5067448;28;20098;-82
2023/12/27 01:22:39;;;;;;;22.15;11.05;;;0.30;74.40;;;;;;5034929;28;20057;-83
2023/12/27 01:25:09;;;;;;;23.33;11.43;;;0.40;74.30;;;;;;5037966;28;20048;-85
2023/12/27 01:27:36;;;;;;;22.25;11.90;;;0.50;74.60;;;;;;5063740;28;20052;-83
2023/12/27 01:30:06;;;;;;;23.63;12.70;;;0.50;74.00;;;;;;5053760;28;20045;-82
2023/12/27 01:32:33;;;;;;;32.85;11.95;;;0.50;74.10;;;;;;5056264;28;20099;-83
2023/12/27 01:35:01;;;;;;;25.83;11.25;;;0.50;74.10;;;;;;5064641;28;20040;-82
2023/12/27 01:37:30;;;;;;;19.05;10.73;;;0.40;74.30;;;;;;5051186;28;20052;-83
2023/12/27 01:39:59;;;;;;;27.08;11.25;;;0.50;74.40;;;;;;5066587;28;20048;-83
2023/12/27 01:42:27;;;;;;;26.02;11.65;;;0.50;74.00;;;;;;5064821;28;20064;-84
2023/12/27 01:44:55;;;;;;;21.30;11.90;;;0.50;74.50;;;;;;5055601;28;20087;-84
2023/12/27 01:47:23;;;;;;;29.63;11.25;;;0.40;74.20;;;;;;5061390;28;20051;-83
2023/12/27 01:49:50;;;;;;;28.98;13.25;;;0.40;74.60;;;;;;5058147;28;20092;-81
2023/12/27 01:52:18;;;;;;;22.98;12.20;;;0.50;74.70;;;;;;5051187;28;20051;-84
2023/12/27 01:54:46;;;;;;;19.05;11.45;;;0.50;74.30;;;;;;5035548;28;20048;-83
2023/12/27 01:57:15;;;;;;;22.67;12.02;;;0.30;74.50;;;;;;5056947;28;20067;-83
2023/12/27 01:59:42;;;;;;;25.33;13.32;;;0.30;74.90;;;;;;5059263;28;20059;-83
2023/12/27 02:02:10;;;;;;;26.48;13.23;;;0.30;75.40;;;;;;5062513;28;20064;-81
2023/12/27 02:04:38;;;;;;;28.65;14.13;;;0.40;75.20;;;;;;5082478;28;20044;-83
2023/12/27 02:07:07;;;;;;;31.85;13.88;;;0.40;75.20;;;;;;5049371;28;20056;-83
2023/12/27 02:09:36;;;;;;;27.48;13.95;;;0.40;75.40;;;;;;5063297;28;20536;-82
2023/12/27 02:12:04;;;;;;;26.52;13.73;;;0.50;75.40;;;;;;5050206;28;20044;-83
2023/12/27 02:14:33;;;;;;;30.48;14.00;;;0.50;75.30;;;;;;5066012;28;20135;-83
2023/12/27 02:17:01;;;;;;;27.60;13.93;;;0.50;75.20;;;;;;5064090;28;20098;-81
2023/12/27 02:19:29;;;;;;;35.45;15.00;;;0.40;75.00;;;;;;5059995;28;20055;-82
2023/12/27 02:21:59;;;;;;;28.55;14.02;;;0.40;75.80;;;;;;5066467;28;20428;-83
2023/12/27 02:24:36;;;;;;;26.33;13.57;;;0.40;75.80;;;;;;5066061;28;20048;-83
2023/12/27 02:27:05;;;;;;;32.50;14.23;;;0.50;76.00;;;;;;5045784;28;20053;-84
2023/12/27 02:29:33;;;;;;;35.45;15.65;;;0.40;75.80;;;;;;5061217;28;20835;-83
2023/12/27 02:32:00;;;;;;;34.30;14.00;;;0.40;75.90;;;;;;5052731;28;20146;-85
2023/12/27 02:34:28;;;;;;;31.15;14.25;;;0.40;75.80;;;;;;5070246;28;20052;-83
2023/12/27 02:36:55;;;;;;;31.23;14.68;;;0.40;75.90;;;;;;5068467;28;20044;-82
2023/12/27 02:39:23;;;;;;;29.75;14.18;;;0.40;75.70;;;;;;5071916;28;20063;-82
2023/12/27 02:41:52;;;;;;;28.13;14.52;;;0.30;76.10;;;;;;5055086;28;20669;-83
2023/12/27 02:44:20;;;;;;;28.15;14.90;;;0.30;76.10;;;;;;5084733;28;20447;-82
2023/12/27 02:46:49;;;;;;;27.75;15.57;;;0.30;76.20;;;;;;5043296;28;20750;-83
2023/12/27 02:49:17;;;;;;;30.33;14.27;;;0.30;76.50;;;;;;5054959;28;20484;-84
2023/12/27 02:51:45;;;;;;;27.27;14.90;;;0.30;76.30;;;;;;5063709;28;20053;-84
2023/12/27 02:54:12;;;;;;;37.05;15.52;;;0.40;76.50;;;;;;5062284;28;20078;-85
2023/12/27 02:56:41;;;;;;;29.13;12.77;;;0.40;76.50;;;;;;5069774;28;20049;-84
2023/12/27 02:59:10;;;;;;;22.80;13.45;;;0.30;75.80;;;;;;5062968;28;20102;-85
2023/12/27 03:01:38;;;;;;;26.55;13.82;;;0.30;76.00;;;;;;5065619;28;20053;-85
2023/12/27 03:04:05;;;;;;;31.27;15.70;;;0.20;76.40;;;;;;5036566;28;20036;-84
2023/12/27 03:06:35;;;;;;;32.90;15.70;;;0.20;76.60;;;;;;5052095;28;20053;-85
2023/12/27 03:09:03;;;;;;;31.52;15.45;;;0.10;76.70;;;;;;5070899;28;20045;-85
2023/12/27 03:11:32;;;;;;;28.67;15.48;;;0.10;76.40;;;;;;5053613;28;20048;-84
2023/12/27 03:13:59;;;;;;;34.67;16.77;;;0.10;76.70;;;;;;5068813;28;20409;-85
2023/12/27 03:16:28;;;;;;;30.90;16.70;;;0.00;77.00;;;;;;5058460;28;20055;-84
2023/12/27 03:18:56;;;;;;;31.77;16.13;;;0.00;76.70;;;;;;5048741;28;20041;-84
2023/12/27 03:21:23;;;;;;;35.25;16.48;;;-0.10;76.90;;;;;;5038503;28;20052;-84
2023/12/27 03:23:51;;;;;;;32.38;15.93;;;-0.10;77.00;;;;;;5063918;28;20491;-85
2023/12/27 03:26:18;;;;;;;28.90;14.80;;;-0.10;77.30;;;;;;5057647;28;20045;-84
2023/12/27 03:28:46;;;;;;;27.35;13.38;;;-0.10;77.40;;;;;;5074389;28;20086;-84
2023/12/27 03:31:17;;;;;;;29.83;14.95;;;-0.10;76.50;;;;;;5069843;28;20052;-83
2023/12/27 03:33:47;;;;;;;35.15;14.82;;;-0.10;76.50;;;;;;5071706;28;20055;-84
2023/12/27 03:36:14;;;;;;;25.45;13.20;;;-0.10;76.80;;;;;;5069377;28;20048;-84
2023/12/27 03:38:42;;;;;;;30.50;12.05;;;-0.10;76.50;;;;;;5071643;28;20054;-84
2023/12/27 03:42:10;;;;;;;27.10;11.57;;;-0.10;76.20;;;;;;5074973;28;20076;-86
2023/12/27 03:46:10;;;;;;;;;;;;;;;;;;;;;
2023/12/27 03:50:09;;;;;;;;;;;;;;;;;;;;;
2023/12/27 03:58:38;;;;;;;;;;;;;;;;;;;;;
2023/12/27 04:08:39;;;;;;;15.88;8.40;;;-0.20;74.60;;;;;;4881072;28;20084;-82
2023/12/27 04:11:30;;;;;;;16.17;8.80;;;-0.10;74.90;;;;;;5010577;28;20049;-82
2023/12/27 04:14:06;;;;;;;15.10;8.00;;;-0.10;75.10;;;;;;5013174;28;20053;-81
2023/12/27 04:18:11;;;;;;;;;;;;;;;;;;;;;
2023/12/27 04:21:21;;;;;;;;;;;;;;;;;;;;;
2023/12/27 04:24:03;;;;;;;14.90;7.93;;;-0.20;75.40;;;;;;4980039;28;20577;-83
2023/12/27 04:26:31;;;;;;;15.15;8.65;;;-0.10;75.50;;;;;;5028337;28;20053;-83
2023/12/27 04:29:00;;;;;;;13.70;8.20;;;-0.10;75.30;;;;;;5033900;28;20171;-83
2023/12/27 04:31:45;;;;;;;14.32;8.38;;;-0.10;75.10;;;;;;5075077;28;20625;-81
2023/12/27 04:42:32;;;;;;;14.45;8.52;;;0.00;75.10;;;;;;4927714;28;20058;-83
2023/12/27 04:45:52;;;;;;;13.93;7.90;;;-0.10;74.60;;;;;;4875968;29;20067;-83
2023/12/27 04:54:56;;;;;;;17.60;9.63;;;0.00;74.30;;;;;;4817965;28;20146;-81
2023/12/27 04:57:30;;;;;;;19.75;12.13;;;0.00;74.20;;;;;;5004113;28;20052;-81
2023/12/27 05:00:23;;;;;;;17.67;10.57;;;-0.10;74.40;;;;;;4947513;28;20094;-82
2023/12/27 05:03:04;;;;;;;;;;;;;;;;;;;;;
2023/12/27 05:06:28;;;;;;;;;;;;;;;;;;;;;
2023/12/27 05:09:08;;;;;;;12.20;7.47;;;0.10;74.50;;;;;;4998746;28;20445;-83
2023/12/27 05:11:42;;;;;;;13.52;8.73;;;0.00;74.70;;;;;;5063541;28;20051;-82
2023/12/27 05:14:17;;;;;;;14.68;7.50;;;0.10;75.20;;;;;;5066316;28;20377;-83
2023/12/27 05:17:03;;;;;;;13.90;7.78;;;0.10;74.40;;;;;;5062679;28;20045;-82
2023/12/27 05:19:46;;;;;;;11.07;6.82;;;0.10;74.30;;;;;;5057381;28;20052;-83
2023/12/27 05:22:28;;;;;;;14.57;7.32;;;0.10;74.80;;;;;;5057337;28;20048;-81
2023/12/27 05:25:22;;;;;;;11.15;7.43;;;0.00;74.70;;;;;;5057592;28;20211;-83
2023/12/27 05:28:03;;;;;;;11.93;7.75;;;-0.10;74.90;;;;;;5061724;28;20056;-83
2023/12/27 05:30:37;;;;;;;11.73;7.75;;;-0.10;75.30;;;;;;5067219;28;20139;-85
2023/12/27 05:33:05;;;;;;;11.90;8.20;;;-0.10;76.10;;;;;;5064725;28;20051;-86
2023/12/27 05:35:33;;;;;;;14.77;7.80;;;-0.10;75.60;;;;;;5044723;28;20040;-85
2023/12/27 05:38:06;;;;;;;11.40;7.57;;;-0.10;75.50;;;;;;5066944;28;20084;-84
2023/12/27 05:40:36;;;;;;;15.50;7.18;;;-0.10;75.30;;;;;;5063974;28;20543;-86
2023/12/27 05:43:37;;;;;;;;;;;;;;;;;;;;;
2023/12/27 05:46:24;;;;;;;13.95;6.97;;;-0.20;75.70;;;;;;5031177;28;20057;-86
2023/12/27 05:48:52;;;;;;;12.95;8.15;;;-0.20;75.50;;;;;;5047288;28;20057;-84
2023/12/27 05:51:20;;;;;;;12.02;7.45;;;-0.20;75.80;;;;;;5012084;28;20152;-86
2023/12/27 05:53:54;;;;;;;13.60;8.40;;;-0.20;75.80;;;;;;5031095;28;20513;-84
2023/12/27 05:56:21;;;;;;;12.98;8.00;;;-0.10;75.60;;;;;;5075186;28;20066;-83
2023/12/27 05:58:50;;;;;;;19.80;9.43;;;-0.10;75.80;;;;;;5048992;28;20045;-84
2023/12/27 06:01:18;;;;;;;14.50;8.85;;;-0.10;75.80;;;;;;5036941;28;20067;-84
2023/12/27 06:03:46;;;;;;;14.98;8.73;;;-0.20;75.70;;;;;;5063668;28;20044;-84
2023/12/27 06:06:14;;;;;;;15.30;8.25;;;-0.30;76.00;;;;;;5045482;28;20140;-85
2023/12/27 06:08:42;;;;;;;13.18;8.48;;;-0.20;76.00;;;;;;5046063;28;20048;-83
2023/12/27 06:11:12;;;;;;;12.40;7.00;;;-0.20;76.10;;;;;;5052006;28;20043;-84
2023/12/27 06:13:40;;;;;;;11.63;7.30;;;-0.10;75.50;;;;;;5076264;28;20040;-82
2023/12/27 06:16:10;;;;;;;11.65;7.53;;;-0.10;75.10;;;;;;5057384;28;20513;-83
2023/12/27 06:18:40;;;;;;;15.60;8.02;;;-0.10;75.10;;;;;;5064636;28;20040;-83
2023/12/27 06:21:11;;;;;;;13.52;8.60;;;-0.10;75.50;;;;;;5047605;28;20048;-81
2023/12/27 06:23:39;;;;;;;12.15;8.15;;;-0.10;75.50;;;;;;5067039;28;20036;-83
2023/12/27 06:26:11;;;;;;;13.48;9.18;;;-0.10;75.10;;;;;;5036774;28;20044;-83
2023/12/27 06:28:39;;;;;;;11.23;7.38;;;-0.10;75.30;;;;;;5047333;28;20571;-83
2023/12/27 06:31:06;;;;;;;12.40;7.63;;;0.00;74.90;;;;;;5043304;28;20044;-83
2023/12/27 06:33:36;;;;;;;13.88;7.97;;;-0.10;74.50;;;;;;5027155;28;20045;-82
2023/12/27 06:36:06;;;;;;;14.43;8.23;;;-0.10;74.90;;;;;;5028297;28;20143;-83
2023/12/27 06:38:33;;;;;;;13.98;7.43;;;0.00;74.70;;;;;;5060191;28;20445;-82
2023/12/27 06:41:02;;;;;;;12.32;8.05;;;-0.10;74.70;;;;;;5061017;28;20041;-84
2023/12/27 06:43:32;;;;;;;14.43;8.20;;;-0.10;75.00;;;;;;5063799;28;20052;-84
2023/12/27 06:45:59;;;;;;;13.05;7.43;;;0.00;74.60;;;;;;5062410;28;20079;-84
2023/12/27 06:48:27;;;;;;;10.95;7.63;;;0.00;74.80;;;;;;5059376;28;20049;-83
2023/12/27 06:50:54;;;;;;;11.45;7.60;;;0.00;74.30;;;;;;5062355;28;20497;-83
2023/12/27 06:53:23;;;;;;;15.57;8.50;;;0.00;74.20;;;;;;5065405;28;20041;-84
2023/12/27 06:56:00;;;;;;;13.25;7.85;;;0.00;73.90;;;;;;5029289;28;20118;-82
2023/12/27 06:58:28;;;;;;;13.05;8.10;;;0.00;74.10;;;;;;5045231;28;20053;-84
2023/12/27 07:00:57;;;;;;;14.18;9.07;;;0.00;74.10;;;;;;5066992;28;20154;-83
2023/12/27 07:03:25;;;;;;;15.27;8.85;;;0.00;74.20;;;;;;5062660;28;20089;-83
2023/12/27 07:05:54;;;;;;;17.10;8.82;;;0.00;74.20;;;;;;5046174;28;20075;-82
2023/12/27 07:08:22;;;;;;;19.83;9.02;;;0.00;74.20;;;;;;5035219;28;20346;-84
2023/12/27 07:10:50;;;;;;;18.48;9.65;;;0.10;74.40;;;;;;5064934;28;20056;-82
2023/12/27 07:13:17;;;;;;;16.90;8.90;;;0.10;74.10;;;;;;5031633;28;20098;-83
2023/12/27 07:15:45;;;;;;;17.40;9.75;;;0.10;73.90;;;;;;5049022;28;20459;-83
2023/12/27 07:18:18;;;;;;;16.92;9.80;;;0.10;73.60;;;;;;5064113;28;20595;-83
2023/12/27 07:20:52;;;;;;;14.00;9.60;;;0.20;73.70;;;;;;5071323;28;20598;-83
2023/12/27 07:23:57;;;;;;;;;;;;;;;;;;;;;
2023/12/27 07:32:11;;;;;;;;;;;;;;;;;;;;;
2023/12/27 07:35:25;;;;;;;14.70;9.25;;;0.20;72.80;;;;;;4894365;28;20253;-83
2023/12/27 07:38:01;;;;;;;18.50;9.65;;;0.20;72.80;;;;;;4990792;28;20053;-83
2023/12/27 07:41:55;;;;;;;16.52;9.80;;;0.30;72.80;;;;;;5072091;28;20040;-83
2023/12/27 07:44:57;;;;;;;;;;;;;;;;;;;;;
2023/12/27 07:48:08;;;;;;;;;;;;;;;;;;;;;
2023/12/27 07:51:29;;;;;;;16.85;10.15;;;0.40;72.40;;;;;;5039856;28;20080;-84
2023/12/27 07:54:14;;;;;;;16.65;9.80;;;0.30;71.70;;;;;;5062394;28;20041;-82
2023/12/27 08:01:45;;;;;;;;;;;0.40;71.60;;;;;;4967821;28;20040;-84
2023/12/27 08:04:29;;;;;;;20.30;11.45;;;0.50;71.70;;;;;;5031748;28;19990;-84
2023/12/27 08:07:21;;;;;;;23.90;12.07;;;0.60;72.60;;;;;;4991383;28;20054;-83
2023/12/27 08:09:51;;;;;;;24.02;13.95;;;0.60;72.00;;;;;;5049141;28;20189;-86
2023/12/27 08:17:27;;;;;;;22.55;12.13;;;0.60;72.10;;;;;;4942727;28;20080;-81
2023/12/27 08:19:57;;;;;;;52.03;22.13;;;0.60;71.80;;;;;;4948559;28;20519;-82
2023/12/27 08:22:36;;;;;;;36.28;19.73;;;0.50;72.00;;;;;;5022901;28;20079;-82
2023/12/27 08:25:12;;;;;;;44.50;21.13;;;0.50;72.10;;;;;;5041426;28;20111;-82
2023/12/27 08:27:50;;;;;;;31.13;17.23;;;0.50;72.30;;;;;;5044462;28;20620;-82
2023/12/27 08:30:18;;;;;;;27.95;14.57;;;0.50;72.90;;;;;;5062648;28;20048;-84
2023/12/27 08:32:46;;;;;;;31.38;14.82;;;0.50;72.70;;;;;;5064519;28;20603;-82
2023/12/27 08:35:21;;;;;;;34.90;16.90;;;0.40;72.70;;;;;;5064157;28;20143;-83
2023/12/27 08:37:50;;;;;;;34.85;17.70;;;0.50;73.10;;;;;;5064729;28;20469;-84
2023/12/27 08:40:18;;;;;;;37.55;19.73;;;0.40;72.90;;;;;;5064631;28;20458;-84
2023/12/27 08:42:46;;;;;;;45.67;25.73;;;0.40;72.90;;;;;;5064521;28;20052;-84
2023/12/27 08:45:16;;;;;;;56.13;27.13;;;0.50;73.10;;;;;;5065743;28;20091;-83
2023/12/27 08:47:44;;;;;;;45.50;25.77;;;0.50;72.40;;;;;;5041842;28;20052;-83
2023/12/27 08:50:12;;;;;;;54.05;27.38;;;0.50;72.00;;;;;;5061059;28;20049;-84
2023/12/27 08:52:40;;;;;;;46.13;24.30;;;0.40;71.90;;;;;;5047109;28;20052;-82
2023/12/27 08:55:10;;;;;;;50.50;25.23;;;0.40;72.10;;;;;;5064623;28;20045;-83
2023/12/27 08:57:39;;;;;;;49.35;25.50;;;0.40;71.90;;;;;;5064408;28;20044;-84
2023/12/27 09:00:10;;;;;;;49.78;25.88;;;0.30;71.80;;;;;;5077839;28;20048;-83
2023/12/27 09:02:37;;;;;;;48.72;24.05;;;0.20;71.90;;;;;;5062403;28;20043;-83
2023/12/27 09:05:09;;;;;;;39.42;22.80;;;0.20;72.40;;;;;;5044853;28;20103;-84
2023/12/27 09:07:40;;;;;;;42.53;22.00;;;0.30;72.00;;;;;;5054391;28;20052;-84
2023/12/27 09:10:10;;;;;;;41.28;21.52;;;0.30;71.90;;;;;;5029353;28;20056;-83
2023/12/27 09:12:38;;;;;;;42.53;21.45;;;0.30;72.00;;;;;;5044664;28;20139;-81
2023/12/27 09:15:08;;;;;;;42.08;19.42;;;0.40;72.00;;;;;;5054340;28;20052;-85
2023/12/27 09:17:35;;;;;;;39.00;16.60;;;0.50;71.50;;;;;;5043995;28;20493;-85
2023/12/27 09:20:07;;;;;;;34.30;17.50;;;0.60;71.00;;;;;;5061527;28;20705;-84
2023/12/27 09:22:35;;;;;;;29.90;15.75;;;0.60;70.80;;;;;;5050738;28;20052;-84
2023/12/27 09:25:03;;;;;;;26.20;14.55;;;0.60;70.60;;;;;;5030975;28;20963;-86
2023/12/27 09:27:33;;;;;;;31.73;14.60;;;0.60;70.60;;;;;;5058840;28;20139;-85
2023/12/27 09:30:00;;;;;;;33.78;15.85;;;0.50;70.50;;;;;;5046191;28;20094;-85
2023/12/27 09:32:29;;;;;;;32.10;15.25;;;0.50;70.60;;;;;;5063390;28;20040;-87
2023/12/27 09:34:58;;;;;;;29.63;14.93;;;0.50;70.60;;;;;;5057742;28;20040;-87
2023/12/27 09:37:35;;;;;;;27.20;13.95;;;0.50;70.40;;;;;;5061548;28;20048;-85
2023/12/27 09:40:25;;;;;;;28.52;14.85;;;0.50;70.40;;;;;;5060743;28;20056;-86
2023/12/27 09:42:57;;;;;;;34.17;15.40;;;0.50;70.40;;;;;;5062814;28;20083;-85
2023/12/27 09:45:26;;;;;;;31.00;15.90;;;0.40;70.20;;;;;;5061899;28;20558;-86
2023/12/27 09:47:55;;;;;;;30.67;14.85;;;0.30;70.70;;;;;;5061831;28;20130;-85
2023/12/27 09:50:23;;;;;;;39.15;17.50;;;0.30;71.10;;;;;;5064705;28;20044;-85
2023/12/27 09:52:51;;;;;;;42.67;18.33;;;0.40;71.40;;;;;;5043062;28;20045;-86
2023/12/27 09:55:21;;;;;;;37.40;16.73;;;0.60;71.70;;;;;;5064145;28;20045;-86
2023/12/27 09:57:56;;;;;;;43.53;18.45;;;0.70;70.80;;;;;;5064677;28;20048;-86
2023/12/27 10:00:27;;;;;;;33.65;16.98;;;0.60;70.10;;;;;;5062399;28;20532;-86
2023/12/27 10:02:59;;;;;;;31.70;15.63;;;0.50;69.80;;;;;;5060821;28;20406;-85
2023/12/27 10:05:40;;;;;;;38.70;18.25;;;0.60;70.70;;;;;;5064967;28;20424;-87
2023/12/27 10:08:07;;;;;;;35.95;17.38;;;0.70;70.80;;;;;;5067100;28;20048;-86
2023/12/27 10:10:36;;;;;;;32.10;16.88;;;0.70;70.30;;;;;;5067337;28;20075;-81
2023/12/27 10:13:07;;;;;;;27.83;15.05;;;0.60;70.10;;;;;;5065106;28;20082;-82
2023/12/27 10:15:34;;;;;;;31.00;16.45;;;0.70;70.40;;;;;;5068430;28;20114;-82
2023/12/27 10:18:12;;;;;;;31.17;16.45;;;0.60;70.50;;;;;;5061916;28;20147;-80
2023/12/27 10:20:46;;;;;;;30.92;15.07;;;0.70;70.80;;;;;;5062125;28;20560;-81
2023/12/27 10:23:14;;;;;;;31.02;16.13;;;0.70;70.60;;;;;;5044520;28;20546;-81
2023/12/27 10:25:43;;;;;;;31.40;15.13;;;0.70;70.30;;;;;;5063597;28;20529;-82
2023/12/27 10:28:11;;;;;;;30.58;15.85;;;0.70;70.80;;;;;;5061421;28;20057;-86
2023/12/27 10:30:39;;;;;;;22.75;13.85;;;0.50;70.40;;;;;;5039942;28;20059;-86
2023/12/27 10:33:06;;;;;;;33.17;14.60;;;0.70;70.90;;;;;;5058548;28;20136;-86
2023/12/27 10:35:35;;;;;;;37.05;18.17;;;0.60;70.90;;;;;;5067052;28;20068;-83
2023/12/27 10:38:06;;;;;;;26.65;14.32;;;0.50;71.20;;;;;;5045030;28;20043;-85
2023/12/27 10:40:34;;;;;;;35.47;16.40;;;0.50;71.30;;;;;;5061743;28;20115;-84
2023/12/27 10:43:02;;;;;;;30.08;16.63;;;0.50;71.50;;;;;;5027711;28;20048;-83
2023/12/27 10:45:32;;;;;;;32.90;17.60;;;0.50;71.60;;;;;;5063628;28;20040;-82
2023/12/27 10:48:04;;;;;;;37.28;19.55;;;0.40;71.30;;;;;;5042612;28;20052;-81
2023/12/27 10:50:36;;;;;;;31.70;17.05;;;0.30;71.70;;;;;;5050577;28;20048;-84
2023/12/27 10:53:08;;;;;;;26.35;15.98;;;0.10;72.30;;;;;;5034236;28;20053;-84
2023/12/27 10:55:37;;;;;;;34.78;16.08;;;0.00;72.70;;;;;;5045697;28;20417;-83
2023/12/27 10:58:13;;;;;;;35.25;16.52;;;0.00;73.50;;;;;;5065661;28;20068;-81
2023/12/27 11:00:43;;;;;;;30.15;15.40;;;0.10;72.90;;;;;;5064509;28;20048;-82
2023/12/27 11:03:13;;;;;;;31.95;16.23;;;0.10;73.30;;;;;;5063986;28;20566;-82
2023/12/27 11:05:41;;;;;;;34.85;17.73;;;0.30;72.40;;;;;;5058780;28;20041;-88
2023/12/27 11:08:12;;;;;;;29.52;16.58;;;0.30;72.70;;;;;;5064768;28;20059;-85
2023/12/27 11:10:41;;;;;;;28.17;15.48;;;0.30;72.50;;;;;;5070566;28;20112;-84
2023/12/27 11:14:40;;;;;;;;;;;;;;;;;;;;;
2023/12/27 11:18:00;;;;;;;;;;;;;;;;;;;;;
2023/12/27 11:21:10;;;;;;;;;;;;;;;;;;;;;
2023/12/27 11:24:03;;;;;;;39.55;18.05;;;0.40;72.40;;;;;;4935904;28;20043;-88
2023/12/27 11:26:42;;;;;;;33.88;16.15;;;0.50;71.90;;;;;;4965668;28;20082;-87
2023/12/27 11:29:12;;;;;;;36.35;17.45;;;0.50;71.50;;;;;;5030231;28;20525;-85
2023/12/27 11:31:40;;;;;;;33.45;17.05;;;0.30;71.50;;;;;;5064775;28;20040;-86
2023/12/27 11:34:12;;;;;;;38.13;18.35;;;0.30;71.90;;;;;;5065945;28;20044;-84
2023/12/27 11:36:40;;;;;;;32.38;17.17;;;0.30;72.30;;;;;;5079242;28;20076;-84
2023/12/27 11:39:17;;;;;;;39.08;17.77;;;0.30;72.40;;;;;;5047630;28;20049;-84
2023/12/27 11:41:44;;;;;;;34.92;17.17;;;0.30;72.10;;;;;;5046412;28;20049;-86
2023/12/27 11:44:17;;;;;;;32.13;17.58;;;0.30;72.30;;;;;;5047100;28;20053;-85
2023/12/27 11:46:48;;;;;;;36.83;18.90;;;0.30;72.40;;;;;;5064780;28;20126;-84
2023/12/27 11:49:25;;;;;;;33.95;15.95;;;0.30;72.30;;;;;;5065896;28;20056;-83
2023/12/27 11:51:53;;;;;;;39.17;18.33;;;0.30;72.20;;;;;;5062891;28;20421;-84
2023/12/27 11:54:24;;;;;;;33.17;18.00;;;0.40;72.50;;;;;;5028369;28;20095;-82
2023/12/27 11:56:53;;;;;;;31.25;17.70;;;0.30;72.10;;;;;;5065035;28;20075;-83
2023/12/27 11:59:22;;;;;;;29.05;16.17;;;0.30;71.90;;;;;;5047129;28;20135;-82
2023/12/27 12:01:52;;;;;;;33.25;17.17;;;0.30;72.10;;;;;;5041231;28;20037;-84
2023/12/27 12:04:49;;;;;;;33.08;19.23;;;0.30;72.70;;;;;;5045452;28;20051;-83
2023/12/27 12:08:00;;;;;;;37.63;20.60;;;0.30;72.60;;;;;;5052419;28;20530;-83
2023/12/27 12:10:28;;;;;;;36.60;18.23;;;0.30;72.30;;;;;;5063922;28;20575;-84
2023/12/27 12:12:58;;;;;;;36.20;18.40;;;0.20;72.60;;;;;;5046275;28;20045;-82
2023/12/27 12:15:30;;;;;;;35.40;19.17;;;0.20;72.40;;;;;;5065414;28;20053;-84
2023/12/27 12:18:01;;;;;;;48.15;22.42;;;0.30;72.50;;;;;;5063007;28;20064;-87
2023/12/27 12:20:30;;;;;;;43.25;19.88;;;0.20;72.60;;;;;;5032491;28;20053;-86
2023/12/27 12:23:00;;;;;;;42.58;21.55;;;0.10;72.80;;;;;;5065455;28;20045;-86
2023/12/27 12:25:29;;;;;;;49.08;21.92;;;0.10;73.20;;;;;;5065236;28;20094;-88
2023/12/27 12:27:59;;;;;;;46.50;22.23;;;0.10;73.40;;;;;;5063041;28;20476;-89
2023/12/27 12:30:26;;;;;;;46.38;23.52;;;0.00;73.30;;;;;;5062683;28;20508;-87
2023/12/27 12:32:55;;;;;;;48.58;22.83;;;0.00;73.50;;;;;;5065212;28;20139;-86
2023/12/27 12:35:23;;;;;;;42.17;21.98;;;0.00;73.70;;;;;;5029930;28;20052;-86
2023/12/27 12:37:52;;;;;;;47.92;24.17;;;0.00;73.90;;;;;;5063810;28;20044;-86
2023/12/27 12:40:19;;;;;;;53.42;23.55;;;0.00;73.90;;;;;;5064863;28;20044;-87
2023/12/27 12:42:48;;;;;;;47.63;22.92;;;0.00;73.80;;;;;;5064027;28;20071;-89
2023/12/27 12:45:18;;;;;;;58.92;23.55;;;0.00;74.20;;;;;;5049663;28;20049;-85
2023/12/27 12:47:46;;;;;;;48.17;22.98;;;0.00;73.40;;;;;;5061448;28;20055;-84
2023/12/27 12:50:19;;;;;;;52.38;23.92;;;0.00;73.80;;;;;;5055641;28;20078;-84
2023/12/27 12:52:47;;;;;;;50.28;25.55;;;0.00;73.90;;;;;;5067393;28;20412;-81
2023/12/27 12:55:19;;;;;;;54.05;25.85;;;0.00;74.90;;;;;;5048737;28;20044;-82
2023/12/27 12:57:48;;;;;;;55.17;26.85;;;0.10;73.70;;;;;;5050559;28;20095;-81
2023/12/27 13:00:22;;;;;;;56.05;25.23;;;0.10;73.70;;;;;;5049524;28;20052;-82
2023/12/27 13:02:50;;;;;;;50.72;25.42;;;0.00;73.70;;;;;;5046887;28;20048;-81
2023/12/27 13:05:18;;;;;;;57.55;26.00;;;0.00;73.50;;;;;;5063336;28;20050;-81
2023/12/27 13:07:45;;;;;;;60.90;27.02;;;-0.10;73.70;;;;;;5063887;28;20084;-82
2023/12/27 13:10:13;;;;;;;62.97;25.83;;;-0.10;73.70;;;;;;5050734;28;20044;-82
2023/12/27 13:12:42;;;;;;;52.47;26.60;;;-0.10;73.90;;;;;;5067371;28;20500;-84
2023/12/27 13:15:13;;;;;;;56.75;26.20;;;-0.20;74.10;;;;;;5069648;28;20050;-84
2023/12/27 13:17:43;;;;;;;57.88;26.25;;;-0.20;74.30;;;;;;5065884;28;20091;-84
2023/12/27 13:20:11;;;;;;;51.63;27.27;;;-0.20;74.50;;;;;;5069398;28;20147;-83
2023/12/27 13:22:39;;;;;;;51.60;27.02;;;-0.20;74.50;;;;;;5068514;28;20063;-85
2023/12/27 13:25:09;;;;;;;64.65;25.70;;;-0.20;74.30;;;;;;5064557;28;20072;-85
2023/12/27 13:27:38;;;;;;;60.28;26.77;;;-0.10;74.30;;;;;;5048301;28;20044;-85
2023/12/27 13:30:08;;;;;;;59.70;27.67;;;-0.10;74.30;;;;;;5046379;28;20147;-82
2023/12/27 13:32:36;;;;;;;48.80;24.25;;;-0.10;74.30;;;;;;5062627;28;20114;-82
2023/12/27 13:35:06;;;;;;;50.78;25.25;;;-0.10;74.30;;;;;;5064210;28;20066;-83
2023/12/27 13:37:33;;;;;;;53.13;25.67;;;-0.10;74.30;;;;;;5063907;28;20055;-84
2023/12/27 13:40:01;;;;;;;50.42;24.10;;;-0.20;74.00;;;;;;5045970;28;20099;-85
2023/12/27 13:42:29;;;;;;;48.65;23.75;;;-0.10;74.40;;;;;;5059876;28;20068;-85
2023/12/27 13:44:59;;;;;;;51.33;24.23;;;-0.20;74.20;;;;;;5064952;28;20048;-85
2023/12/27 13:47:28;;;;;;;52.03;24.95;;;-0.20;74.30;;;;;;5063921;28;20079;-82
2023/12/27 13:49:56;;;;;;;48.45;23.60;;;-0.10;74.40;;;;;;5062439;28;20102;-85
2023/12/27 13:52:23;;;;;;;51.90;24.40;;;-0.20;74.40;;;;;;5035619;28;20044;-86
2023/12/27 13:54:50;;;;;;;47.53;23.25;;;-0.20;74.40;;;;;;5066250;28;20045;-89
2023/12/27 13:57:19;;;;;;;54.35;24.52;;;-0.30;74.40;;;;;;5066981;28;20037;-84
2023/12/27 13:59:46;;;;;;;54.17;24.60;;;-0.20;74.60;;;;;;5047387;28;20048;-85
2023/12/27 14:02:14;;;;;;;47.47;23.65;;;-0.30;74.70;;;;;;5065047;28;20041;-87
2023/12/27 14:04:43;;;;;;;50.15;24.95;;;-0.30;75.00;;;;;;5062169;28;20522;-83
2023/12/27 14:07:11;;;;;;;52.72;24.27;;;-0.30;75.00;;;;;;5062734;28;20135;-85
2023/12/27 14:09:39;;;;;;;47.80;23.02;;;-0.30;75.00;;;;;;5057788;28;20040;-87
2023/12/27 14:12:08;;;;;;;54.80;24.90;;;-0.20;74.70;;;;;;5062602;28;20051;-83